• Join FlightAware (Why Join?)
  • Login
  • US Flag 
09:34AM EST


 

Airport Tracker/Info


-or-


 

Live Flight TrackerFlight Track Log ✈ SWA1377 ✈ 24-Apr-2013 ✈ KMDW - KBUF

Flight Track Log - Related Links

Times and Time Zones

All times are in EDT time to prevent confusion due to time zone crossing. See the SWA1377 flight status page for this flight to view local times or setup timezone preferences in your user account.

Time Position Orientation Groundspeed Altitude Reporting Facility
EDT Latitude Longitude Course Direction KTS MPH feet Rate Location/Type
10:25AM 41.8094 -87.7700 90° East 147 169 2,400  Level Chicago Center
10:26AM 41.8167 -87.7333 75° East 207 238 3,500 1,500 Climbing Chicago TRACON
10:27AM 41.8167 -87.6667 90° East 217 250 4,400 1,200 Climbing Chicago TRACON
10:27AM 41.8117 -87.6114 97° East 220 253 5,700 2,640 Climbing Chicago Center
10:28AM 41.8008 -87.5036 98° East 278 320 9,200 3,600 Climbing Chicago Center
10:29AM 41.7889 -87.3689 97° East 302 348 13,200 3,240 Climbing Chicago Center
10:31AM 41.7500 -86.8830 90° East  Level FlightAware Approximate
10:31AM 41.7789 -87.2472 96° East 323 372 15,900  Level Chicago Center
10:32AM 41.7661 -87.1086 97° East 365 420 18,600 2,700 Climbing Chicago Center
10:33AM 41.7619 -86.9561 92° East 404 465 21,500 2,520 Climbing Chicago Center
10:34AM 41.7647 -86.7939 89° East 430 495 23,900 2,460 Climbing Chicago Center
10:35AM 41.7661 -86.6103 89° East 460 529 26,700 2,460 Climbing Chicago Center
10:36AM 41.7678 -86.4369 89° East 466 536 29,000 2,280 Climbing Chicago Center
10:37AM 41.7778 -86.2572 86° East 482 555 31,500 2,640 Climbing Chicago Center
10:38AM 41.8161 -86.0436 76° East 488 562 34,600 1,680 Climbing Chicago Center
10:39AM 41.8461 -85.8650 77° East 487 560 35,000 180 Climbing Chicago Center
10:40AM 41.8756 -85.6869 77° East 486 559 35,000  Level Chicago Center
10:41AM 41.9056 -85.5064 77° East 490 564 35,000  Level Chicago Center
10:42AM 41.9358 -85.3242 77° East 495 570 35,000  Level Chicago Center
10:43AM 41.9519 -85.2103 79° East 482 555 35,000  Level Cleveland Center
10:44AM 41.9528 -85.0314 90° East 477 549 35,000  Level Cleveland Center
10:45AM 41.9511 -84.8553 91° East 472 543 35,000  Level Cleveland Center
10:46AM 41.9492 -84.6822 91° East 472 543 35,000  Level Cleveland Center
10:47AM 41.9492 -84.5033 90° East 477 549 35,000  Level Cleveland Center
10:48AM 41.9489 -84.3303 90° East 477 549 35,000  Level Cleveland Center
10:49AM 41.9403 -84.1397 93° East 477 549 35,000  Level Cleveland Center
10:50AM 41.9372 -83.9636 91° East 477 549 35,000  Level Cleveland Center
10:51AM 41.9361 -83.7878 90° East 477 549 35,000  Level Cleveland Center
10:52AM 41.9347 -83.6061 91° East 477 549 35,000 -240 Level Cleveland Center
10:53AM 41.9350 -83.4331 90° East 482 555 34,600 -720 Descending Cleveland Center
10:54AM 41.9331 -83.2517 91° East 474 545 33,600 -840 Descending Cleveland Center
10:55AM 41.9303 -83.0953 91° East 479 551 33,000 -300 Descending Cleveland Center
10:56AM 41.9297 -82.9219 90° East 474 545 33,000  Level Cleveland Center
10:57AM 41.9333 -82.7492 88° East 462 532 33,000  Level Cleveland Center
10:58AM 41.9614 -82.5742 78° East 462 532 33,000  Level Cleveland Center
10:59AM 41.9914 -82.3964 77° East 473 544 33,000  Level Cleveland Center
11:00AM 42.0253 -82.2211 75° East 478 550 33,000 -480 Level Cleveland Center
11:01AM 42.0547 -82.0514 77° East 473 544 32,100 -960 Descending Cleveland Center
11:02AM 42.0861 -81.8758 76° East 468 539 31,100 -900 Descending Cleveland Center
11:03AM 42.1128 -81.7028 78° East 468 539 30,400 -900 Descending Cleveland Center
11:04AM 42.1439 -81.5156 77° East 468 539 29,400 -1,020 Descending Cleveland Center
11:05AM 42.1742 -81.3367 77° East 473 544 28,400 -1,020 Descending Cleveland Center
11:06AM 42.2003 -81.1661 78° East 468 539 27,400 -720 Descending Cleveland Center
11:07AM 42.2281 -81.0008 77° East 468 539 27,000 -600 Descending Cleveland Center
11:08AM 42.2556 -80.8272 78° East 468 539 26,300 -900 Descending Cleveland Center
11:09AM 42.2808 -80.6589 78° East 468 539 25,300 -1,020 Descending Cleveland Center
11:10AM 42.3100 -80.4906 77° East 468 539 24,300 -1,020 Descending Cleveland Center
11:11AM 42.3347 -80.3164 79° East 463 533 23,300 -960 Descending Cleveland Center
11:12AM 42.3572 -80.1703 78° East 458 527 22,400 -1,020 Descending Cleveland Center
11:13AM 42.3817 -80.0125 78° East 444 511 21,300 -1,620 Descending Cleveland Center
11:14AM 42.4058 -79.8492 79° East 433 498 19,200 -2,100 Descending Cleveland Center
11:15AM 42.4275 -79.6944 79° East 422 486 17,100 -2,220 Descending Cleveland Center
11:16AM 42.4514 -79.5447 78° East 416 479 14,800 -2,400 Descending Cleveland Center
11:17AM 42.4789 -79.3728 78° East 416 479 12,300 -1,920 Descending Cleveland Center
11:18AM 42.5211 -79.2367 67° East 391 450 11,000 -720 Descending Cleveland Center
11:19AM 42.6014 -79.1531 37° Northeast 362 417 10,900 -480 Descending Cleveland Center
11:20AM 42.6694 -79.1008 29° Northeast 349 402 10,100 -1,260 Descending Cleveland Center
11:21AM 42.7644 -79.0250 30° Northeast 325 374 8,400 -1,500 Descending Cleveland Center
11:22AM 42.8386 -78.9636 31° Northeast 319 367 7,100 -720 Descending Cleveland Center
11:23AM 42.9106 -78.8994 33° Northeast 309 356 7,000 -120 Descending Cleveland Center
11:23AM 42.9333 -78.8667 46° Northeast 284 327 7,000 -420 Level Buffalo TRACON
11:24AM 43.0000 -78.8167 29° Northeast 261 300 6,400 -1,140 Descending Buffalo TRACON
11:25AM 43.0667 -78.7500 36° Northeast 285 328 4,800 -1,620 Descending Buffalo TRACON
11:26AM 43.1000 -78.6667 61° Northeast 272 313 3,200 -1,080 Descending Buffalo TRACON
11:27AM 43.0500 -78.6333 154° Southeast 180 207 2,700 -480 Descending Buffalo TRACON
11:28AM 43.0167 -78.6500 200° South 139 160 2,300 -540 Descending Buffalo TRACON
11:29AM 42.9833 -78.6667 200° South 117 135 1,700 -660 Descending Buffalo TRACON
11:30AM 42.9500 -78.7000 216° Southwest 119 137 1,000 -660 Descending Buffalo TRACON